sensor_id;sensor_type;location;lat;lon;timestamp;P1;durP1;ratioP1;P2;durP2;ratioP2
68886;SDS011;55925;51.764;6.402;2023-02-28T14:16:16;5.35;;;2.67;;
68886;SDS011;55925;51.764;6.402;2023-02-28T14:18:48;4.97;;;2.22;;
68886;SDS011;55925;51.764;6.402;2023-02-28T14:21:26;4.72;;;2.15;;
68886;SDS011;55925;51.764;6.402;2023-02-28T14:34:54;7.07;;;2.97;;
68886;SDS011;55925;51.764;6.402;2023-02-28T14:37:27;8.07;;;2.70;;
68886;SDS011;55925;51.764;6.402;2023-02-28T14:39:53;6.45;;;2.40;;
68886;SDS011;55925;51.764;6.402;2023-02-28T14:45:17;6.85;;;2.58;;
68886;SDS011;55925;51.764;6.402;2023-02-28T14:47:44;5.72;;;2.75;;
68886;SDS011;55925;51.764;6.402;2023-02-28T14:50:17;6.80;;;2.78;;
68886;SDS011;55925;51.764;6.402;2023-02-28T14:52:44;5.70;;;2.40;;
68886;SDS011;55925;51.764;6.402;2023-02-28T14:55:12;4.90;;;2.45;;
68886;SDS011;55925;51.764;6.402;2023-02-28T14:57:41;4.53;;;2.28;;
68886;SDS011;55925;51.764;6.402;2023-02-28T15:00:12;4.90;;;2.40;;
68886;SDS011;55925;51.764;6.402;2023-02-28T15:02:39;4.38;;;2.20;;
68886;SDS011;55925;51.764;6.402;2023-02-28T15:10:07;5.55;;;2.20;;
68886;SDS011;55925;51.764;6.402;2023-02-28T15:12:34;5.13;;;2.33;;
68886;SDS011;55925;51.764;6.402;2023-02-28T15:15:00;4.18;;;2.53;;
68886;SDS011;55925;51.764;6.402;2023-02-28T15:17:26;6.07;;;2.40;;
68886;SDS011;55925;51.764;6.402;2023-02-28T15:19:52;4.38;;;1.90;;
68886;SDS011;55925;51.764;6.402;2023-02-28T15:22:20;5.13;;;2.65;;
68886;SDS011;55925;51.764;6.402;2023-02-28T15:24:49;4.57;;;2.30;;
68886;SDS011;55925;51.764;6.402;2023-02-28T15:27:18;6.53;;;2.45;;
68886;SDS011;55925;51.764;6.402;2023-02-28T15:29:47;4.57;;;2.33;;
68886;SDS011;55925;51.764;6.402;2023-02-28T15:32:29;5.70;;;2.30;;
68886;SDS011;55925;51.764;6.402;2023-02-28T15:34:56;5.30;;;2.63;;
68886;SDS011;55925;51.764;6.402;2023-02-28T15:39:56;6.10;;;2.53;;
68886;SDS011;55925;51.764;6.402;2023-02-28T15:42:23;3.83;;;2.15;;
68886;SDS011;55925;51.764;6.402;2023-02-28T15:44:49;6.95;;;2.65;;
68886;SDS011;55925;51.764;6.402;2023-02-28T15:49:54;5.20;;;2.40;;
68886;SDS011;55925;51.764;6.402;2023-02-28T15:52:29;5.50;;;3.13;;
68886;SDS011;55925;51.764;6.402;2023-02-28T15:54:59;4.60;;;2.50;;
68886;SDS011;55925;51.764;6.402;2023-02-28T15:57:33;5.32;;;2.17;;
68886;SDS011;55925;51.764;6.402;2023-02-28T16:00:00;5.55;;;2.47;;
68886;SDS011;55925;51.764;6.402;2023-02-28T16:02:30;5.65;;;2.95;;
68886;SDS011;55925;51.764;6.402;2023-02-28T16:07:32;4.72;;;2.53;;
68886;SDS011;55925;51.764;6.402;2023-02-28T16:09:58;13.02;;;5.38;;
68886;SDS011;55925;51.764;6.402;2023-02-28T16:12:28;17.05;;;7.13;;
68886;SDS011;55925;51.764;6.402;2023-02-28T16:14:55;8.00;;;4.32;;
68886;SDS011;55925;51.764;6.402;2023-02-28T16:17:24;8.32;;;4.13;;
68886;SDS011;55925;51.764;6.402;2023-02-28T16:19:51;6.70;;;3.90;;
68886;SDS011;55925;51.764;6.402;2023-02-28T16:22:17;6.80;;;3.40;;
68886;SDS011;55925;51.764;6.402;2023-02-28T16:24:43;4.78;;;2.58;;
68886;SDS011;55925;51.764;6.402;2023-02-28T16:27:16;6.03;;;3.80;;
68886;SDS011;55925;51.764;6.402;2023-02-28T16:29:43;5.53;;;3.25;;
68886;SDS011;55925;51.764;6.402;2023-02-28T16:32:11;4.50;;;2.55;;
68886;SDS011;55925;51.764;6.402;2023-02-28T16:34:37;5.10;;;3.00;;
68886;SDS011;55925;51.764;6.402;2023-02-28T16:37:04;6.75;;;3.30;;
68886;SDS011;55925;51.764;6.402;2023-02-28T16:39:34;6.45;;;2.75;;
68886;SDS011;55925;51.764;6.402;2023-02-28T16:42:00;5.18;;;2.88;;
68886;SDS011;55925;51.764;6.402;2023-02-28T16:44:31;6.32;;;3.17;;
68886;SDS011;55925;51.764;6.402;2023-02-28T16:46:59;7.40;;;4.28;;
68886;SDS011;55925;51.764;6.402;2023-02-28T16:49:25;13.05;;;6.13;;
68886;SDS011;55925;51.764;6.402;2023-02-28T16:51:51;6.97;;;3.50;;
68886;SDS011;55925;51.764;6.402;2023-02-28T16:54:17;6.43;;;3.50;;
68886;SDS011;55925;51.764;6.402;2023-02-28T16:56:44;6.72;;;3.00;;
68886;SDS011;55925;51.764;6.402;2023-02-28T16:59:11;6.03;;;2.85;;
68886;SDS011;55925;51.764;6.402;2023-02-28T17:01:37;6.85;;;3.05;;
68886;SDS011;55925;51.764;6.402;2023-02-28T17:04:03;6.55;;;3.22;;
68886;SDS011;55925;51.764;6.402;2023-02-28T17:06:29;8.57;;;3.53;;
68886;SDS011;55925;51.764;6.402;2023-02-28T17:08:56;5.28;;;2.70;;
68886;SDS011;55925;51.764;6.402;2023-02-28T17:11:23;7.40;;;4.63;;
68886;SDS011;55925;51.764;6.402;2023-02-28T17:13:49;6.50;;;4.20;;
68886;SDS011;55925;51.764;6.402;2023-02-28T17:16:31;7.40;;;4.43;;
68886;SDS011;55925;51.764;6.402;2023-02-28T17:18:58;8.25;;;4.35;;
68886;SDS011;55925;51.764;6.402;2023-02-28T17:21:24;6.53;;;3.70;;
68886;SDS011;55925;51.764;6.402;2023-02-28T17:23:51;8.18;;;4.50;;
68886;SDS011;55925;51.764;6.402;2023-02-28T17:26:17;6.38;;;3.15;;
68886;SDS011;55925;51.764;6.402;2023-02-28T17:28:49;5.38;;;3.13;;
68886;SDS011;55925;51.764;6.402;2023-02-28T17:31:16;7.70;;;3.10;;
68886;SDS011;55925;51.764;6.402;2023-02-28T17:33:42;7.68;;;4.25;;
68886;SDS011;55925;51.764;6.402;2023-02-28T17:36:15;7.57;;;4.20;;
68886;SDS011;55925;51.764;6.402;2023-02-28T17:38:41;6.75;;;3.35;;
68886;SDS011;55925;51.764;6.402;2023-02-28T17:41:09;5.85;;;3.75;;
68886;SDS011;55925;51.764;6.402;2023-02-28T17:43:35;9.68;;;4.45;;
68886;SDS011;55925;51.764;6.402;2023-02-28T17:46:01;7.57;;;3.80;;
68886;SDS011;55925;51.764;6.402;2023-02-28T17:48:30;5.82;;;2.95;;
68886;SDS011;55925;51.764;6.402;2023-02-28T17:50:56;7.68;;;3.60;;
68886;SDS011;55925;51.764;6.402;2023-02-28T17:53:22;7.50;;;3.78;;
68886;SDS011;55925;51.764;6.402;2023-02-28T17:55:51;7.13;;;3.83;;
68886;SDS011;55925;51.764;6.402;2023-02-28T17:58:17;7.75;;;4.07;;
68886;SDS011;55925;51.764;6.402;2023-02-28T18:00:43;9.50;;;3.83;;
68886;SDS011;55925;51.764;6.402;2023-02-28T18:03:10;6.32;;;3.60;;
68886;SDS011;55925;51.764;6.402;2023-02-28T18:05:38;7.25;;;3.63;;
68886;SDS011;55925;51.764;6.402;2023-02-28T18:08:04;9.05;;;3.80;;
68886;SDS011;55925;51.764;6.402;2023-02-28T18:10:30;7.10;;;3.33;;
68886;SDS011;55925;51.764;6.402;2023-02-28T18:12:58;6.20;;;3.72;;
68886;SDS011;55925;51.764;6.402;2023-02-28T18:15:24;6.80;;;3.50;;
68886;SDS011;55925;51.764;6.402;2023-02-28T18:17:51;6.78;;;3.70;;
68886;SDS011;55925;51.764;6.402;2023-02-28T18:20:18;7.70;;;4.22;;
68886;SDS011;55925;51.764;6.402;2023-02-28T18:22:44;7.63;;;3.83;;
68886;SDS011;55925;51.764;6.402;2023-02-28T18:25:11;8.90;;;3.90;;
68886;SDS011;55925;51.764;6.402;2023-02-28T18:27:42;8.50;;;4.30;;
68886;SDS011;55925;51.764;6.402;2023-02-28T18:30:34;8.93;;;4.05;;
68886;SDS011;55925;51.764;6.402;2023-02-28T18:33:01;7.25;;;4.10;;
68886;SDS011;55925;51.764;6.402;2023-02-28T18:35:28;7.80;;;3.90;;
68886;SDS011;55925;51.764;6.402;2023-02-28T18:38:01;9.77;;;4.70;;
68886;SDS011;55925;51.764;6.402;2023-02-28T18:40:27;8.85;;;4.43;;
68886;SDS011;55925;51.764;6.402;2023-02-28T18:42:53;8.88;;;3.97;;
68886;SDS011;55925;51.764;6.402;2023-02-28T18:45:19;7.70;;;3.95;;
68886;SDS011;55925;51.764;6.402;2023-02-28T18:47:45;8.65;;;4.28;;
68886;SDS011;55925;51.764;6.402;2023-02-28T18:50:11;7.75;;;4.88;;
68886;SDS011;55925;51.764;6.402;2023-02-28T18:52:38;8.07;;;4.78;;
68886;SDS011;55925;51.764;6.402;2023-02-28T18:55:04;8.60;;;4.55;;
68886;SDS011;55925;51.764;6.402;2023-02-28T18:57:32;7.82;;;4.40;;
68886;SDS011;55925;51.764;6.402;2023-02-28T18:59:58;8.27;;;4.70;;
68886;SDS011;55925;51.764;6.402;2023-02-28T19:02:24;9.35;;;4.43;;
68886;SDS011;55925;51.764;6.402;2023-02-28T19:04:50;9.13;;;4.25;;
68886;SDS011;55925;51.764;6.402;2023-02-28T19:07:16;9.70;;;5.18;;
68886;SDS011;55925;51.764;6.402;2023-02-28T19:09:42;15.02;;;6.32;;
68886;SDS011;55925;51.764;6.402;2023-02-28T19:12:09;11.30;;;6.85;;
68886;SDS011;55925;51.764;6.402;2023-02-28T19:14:35;11.75;;;6.43;;
68886;SDS011;55925;51.764;6.402;2023-02-28T19:17:01;10.00;;;6.45;;
68886;SDS011;55925;51.764;6.402;2023-02-28T19:19:27;13.68;;;6.38;;
68886;SDS011;55925;51.764;6.402;2023-02-28T19:21:53;11.73;;;6.90;;
68886;SDS011;55925;51.764;6.402;2023-02-28T19:24:19;11.57;;;6.13;;
68886;SDS011;55925;51.764;6.402;2023-02-28T19:26:45;11.27;;;5.95;;
68886;SDS011;55925;51.764;6.402;2023-02-28T19:29:11;8.48;;;5.30;;
68886;SDS011;55925;51.764;6.402;2023-02-28T19:31:37;9.00;;;5.07;;
68886;SDS011;55925;51.764;6.402;2023-02-28T19:34:03;9.05;;;5.75;;
68886;SDS011;55925;51.764;6.402;2023-02-28T19:36:29;8.82;;;5.45;;
68886;SDS011;55925;51.764;6.402;2023-02-28T19:38:55;7.82;;;4.72;;
68886;SDS011;55925;51.764;6.402;2023-02-28T19:41:21;9.52;;;5.10;;
68886;SDS011;55925;51.764;6.402;2023-02-28T19:43:48;9.63;;;5.55;;
68886;SDS011;55925;51.764;6.402;2023-02-28T19:46:15;11.63;;;5.63;;
68886;SDS011;55925;51.764;6.402;2023-02-28T19:48:43;8.65;;;5.55;;
68886;SDS011;55925;51.764;6.402;2023-02-28T19:51:10;10.20;;;5.65;;
68886;SDS011;55925;51.764;6.402;2023-02-28T19:53:38;12.50;;;7.40;;
68886;SDS011;55925;51.764;6.402;2023-02-28T19:56:04;12.18;;;6.60;;
68886;SDS011;55925;51.764;6.402;2023-02-28T19:58:31;12.48;;;7.68;;
68886;SDS011;55925;51.764;6.402;2023-02-28T20:00:57;13.85;;;7.88;;
68886;SDS011;55925;51.764;6.402;2023-02-28T20:03:25;15.95;;;8.10;;
68886;SDS011;55925;51.764;6.402;2023-02-28T20:06:01;12.82;;;7.15;;
68886;SDS011;55925;51.764;6.402;2023-02-28T20:08:27;12.95;;;6.97;;
68886;SDS011;55925;51.764;6.402;2023-02-28T20:10:54;12.90;;;6.82;;
68886;SDS011;55925;51.764;6.402;2023-02-28T20:13:19;10.27;;;6.38;;
68886;SDS011;55925;51.764;6.402;2023-02-28T20:15:47;14.77;;;8.13;;
68886;SDS011;55925;51.764;6.402;2023-02-28T20:18:13;12.05;;;6.82;;
68886;SDS011;55925;51.764;6.402;2023-02-28T20:20:39;13.05;;;7.55;;
68886;SDS011;55925;51.764;6.402;2023-02-28T20:23:06;11.13;;;6.60;;
68886;SDS011;55925;51.764;6.402;2023-02-28T20:25:32;10.90;;;6.00;;
68886;SDS011;55925;51.764;6.402;2023-02-28T20:27:58;11.45;;;6.25;;
68886;SDS011;55925;51.764;6.402;2023-02-28T20:30:24;10.25;;;6.00;;
68886;SDS011;55925;51.764;6.402;2023-02-28T20:32:50;9.18;;;5.20;;
68886;SDS011;55925;51.764;6.402;2023-02-28T20:35:16;11.30;;;5.15;;
68886;SDS011;55925;51.764;6.402;2023-02-28T20:37:42;11.38;;;4.88;;
68886;SDS011;55925;51.764;6.402;2023-02-28T20:40:08;8.38;;;5.57;;
68886;SDS011;55925;51.764;6.402;2023-02-28T20:42:35;12.77;;;6.85;;
68886;SDS011;55925;51.764;6.402;2023-02-28T20:45:01;12.85;;;7.22;;
68886;SDS011;55925;51.764;6.402;2023-02-28T20:47:27;12.82;;;7.57;;
68886;SDS011;55925;51.764;6.402;2023-02-28T20:49:53;11.68;;;7.43;;
68886;SDS011;55925;51.764;6.402;2023-02-28T20:52:19;11.73;;;7.07;;
68886;SDS011;55925;51.764;6.402;2023-02-28T20:54:45;12.15;;;8.40;;
68886;SDS011;55925;51.764;6.402;2023-02-28T20:57:11;13.88;;;8.48;;
68886;SDS011;55925;51.764;6.402;2023-02-28T20:59:37;15.68;;;9.32;;
68886;SDS011;55925;51.764;6.402;2023-02-28T21:02:05;13.18;;;8.13;;
68886;SDS011;55925;51.764;6.402;2023-02-28T21:04:31;15.77;;;8.05;;
68886;SDS011;55925;51.764;6.402;2023-02-28T21:06:57;13.68;;;7.90;;
68886;SDS011;55925;51.764;6.402;2023-02-28T21:09:23;17.65;;;9.43;;
68886;SDS011;55925;51.764;6.402;2023-02-28T21:11:51;14.68;;;7.43;;
68886;SDS011;55925;51.764;6.402;2023-02-28T21:14:17;12.55;;;6.78;;
68886;SDS011;55925;51.764;6.402;2023-02-28T21:16:44;13.65;;;5.95;;
68886;SDS011;55925;51.764;6.402;2023-02-28T21:19:10;13.13;;;6.03;;
68886;SDS011;55925;51.764;6.402;2023-02-28T21:21:38;13.07;;;6.38;;
68886;SDS011;55925;51.764;6.402;2023-02-28T21:24:06;11.20;;;6.03;;
68886;SDS011;55925;51.764;6.402;2023-02-28T21:26:32;13.48;;;6.50;;
68886;SDS011;55925;51.764;6.402;2023-02-28T21:28:59;13.60;;;7.13;;
68886;SDS011;55925;51.764;6.402;2023-02-28T21:31:27;12.40;;;6.30;;
68886;SDS011;55925;51.764;6.402;2023-02-28T21:33:54;12.45;;;5.53;;
68886;SDS011;55925;51.764;6.402;2023-02-28T21:36:22;11.00;;;5.95;;
68886;SDS011;55925;51.764;6.402;2023-02-28T21:38:53;11.50;;;5.80;;
68886;SDS011;55925;51.764;6.402;2023-02-28T21:41:20;11.55;;;6.47;;
68886;SDS011;55925;51.764;6.402;2023-02-28T21:43:46;12.55;;;7.03;;
68886;SDS011;55925;51.764;6.402;2023-02-28T21:46:13;11.40;;;6.50;;
68886;SDS011;55925;51.764;6.402;2023-02-28T21:48:40;16.85;;;8.25;;
68886;SDS011;55925;51.764;6.402;2023-02-28T21:51:07;15.05;;;7.68;;
68886;SDS011;55925;51.764;6.402;2023-02-28T21:53:34;16.33;;;7.60;;
68886;SDS011;55925;51.764;6.402;2023-02-28T21:56:01;13.98;;;7.03;;
68886;SDS011;55925;51.764;6.402;2023-02-28T21:58:28;14.57;;;7.78;;
68886;SDS011;55925;51.764;6.402;2023-02-28T22:01:02;11.98;;;6.93;;
68886;SDS011;55925;51.764;6.402;2023-02-28T22:03:28;13.52;;;7.25;;
68886;SDS011;55925;51.764;6.402;2023-02-28T22:05:54;12.10;;;7.20;;
68886;SDS011;55925;51.764;6.402;2023-02-28T22:08:20;12.05;;;7.13;;
68886;SDS011;55925;51.764;6.402;2023-02-28T22:10:46;15.70;;;7.80;;
68886;SDS011;55925;51.764;6.402;2023-02-28T22:13:12;16.40;;;7.55;;
68886;SDS011;55925;51.764;6.402;2023-02-28T22:15:38;14.60;;;7.75;;
68886;SDS011;55925;51.764;6.402;2023-02-28T22:18:04;14.48;;;7.30;;
68886;SDS011;55925;51.764;6.402;2023-02-28T22:20:30;16.50;;;8.45;;
68886;SDS011;55925;51.764;6.402;2023-02-28T22:22:56;14.05;;;7.68;;
68886;SDS011;55925;51.764;6.402;2023-02-28T22:25:22;18.10;;;8.90;;
68886;SDS011;55925;51.764;6.402;2023-02-28T22:27:48;16.08;;;9.40;;
68886;SDS011;55925;51.764;6.402;2023-02-28T22:30:14;18.38;;;9.73;;
68886;SDS011;55925;51.764;6.402;2023-02-28T22:32:40;19.67;;;9.52;;
68886;SDS011;55925;51.764;6.402;2023-02-28T22:35:06;22.77;;;11.45;;
68886;SDS011;55925;51.764;6.402;2023-02-28T22:37:33;23.50;;;10.70;;
68886;SDS011;55925;51.764;6.402;2023-02-28T22:39:59;18.05;;;9.80;;
68886;SDS011;55925;51.764;6.402;2023-02-28T22:42:25;18.45;;;7.95;;
68886;SDS011;55925;51.764;6.402;2023-02-28T22:44:51;15.43;;;8.68;;
68886;SDS011;55925;51.764;6.402;2023-02-28T22:47:17;19.33;;;9.25;;
68886;SDS011;55925;51.764;6.402;2023-02-28T22:49:43;18.92;;;9.45;;
68886;SDS011;55925;51.764;6.402;2023-02-28T22:52:09;17.83;;;9.10;;
68886;SDS011;55925;51.764;6.402;2023-02-28T22:54:35;19.80;;;9.20;;
68886;SDS011;55925;51.764;6.402;2023-02-28T22:57:01;23.63;;;10.80;;
68886;SDS011;55925;51.764;6.402;2023-02-28T22:59:27;23.02;;;11.32;;
68886;SDS011;55925;51.764;6.402;2023-02-28T23:01:53;20.92;;;10.52;;
68886;SDS011;55925;51.764;6.402;2023-02-28T23:04:19;16.42;;;9.05;;
68886;SDS011;55925;51.764;6.402;2023-02-28T23:06:45;15.20;;;9.07;;
68886;SDS011;55925;51.764;6.402;2023-02-28T23:09:13;16.00;;;8.02;;
68886;SDS011;55925;51.764;6.402;2023-02-28T23:11:42;15.57;;;7.88;;
68886;SDS011;55925;51.764;6.402;2023-02-28T23:14:09;17.77;;;8.05;;
68886;SDS011;55925;51.764;6.402;2023-02-28T23:19:04;17.52;;;7.70;;
68886;SDS011;55925;51.764;6.402;2023-02-28T23:21:30;16.98;;;7.82;;
68886;SDS011;55925;51.764;6.402;2023-02-28T23:23:57;14.68;;;7.25;;
68886;SDS011;55925;51.764;6.402;2023-02-28T23:26:23;12.80;;;7.60;;
68886;SDS011;55925;51.764;6.402;2023-02-28T23:28:49;13.98;;;7.20;;
68886;SDS011;55925;51.764;6.402;2023-02-28T23:31:15;13.63;;;7.20;;
68886;SDS011;55925;51.764;6.402;2023-02-28T23:33:41;13.00;;;7.15;;
68886;SDS011;55925;51.764;6.402;2023-02-28T23:36:11;14.25;;;7.30;;
68886;SDS011;55925;51.764;6.402;2023-02-28T23:38:37;14.57;;;7.68;;
68886;SDS011;55925;51.764;6.402;2023-02-28T23:41:07;12.77;;;6.78;;
68886;SDS011;55925;51.764;6.402;2023-02-28T23:43:34;15.38;;;8.48;;
68886;SDS011;55925;51.764;6.402;2023-02-28T23:46:00;12.38;;;6.57;;
68886;SDS011;55925;51.764;6.402;2023-02-28T23:48:26;14.32;;;6.78;;
68886;SDS011;55925;51.764;6.402;2023-02-28T23:50:52;13.15;;;6.97;;
68886;SDS011;55925;51.764;6.402;2023-02-28T23:53:22;13.00;;;6.60;;
68886;SDS011;55925;51.764;6.402;2023-02-28T23:55:48;11.90;;;6.30;;
68886;SDS011;55925;51.764;6.402;2023-02-28T23:58:14;12.48;;;6.53;;
